sensor_id;sensor_type;location;lat;lon;timestamp;P1;durP1;ratioP1;P2;durP2;ratioP2
2624;SDS011;1322;53.256;10.386;2023-10-13T00:00:33;12.67;;;4.07;;
2624;SDS011;1322;53.256;10.386;2023-10-13T00:03:02;6.67;;;3.93;;
2624;SDS011;1322;53.256;10.386;2023-10-13T00:05:30;7.47;;;4.90;;
2624;SDS011;1322;53.256;10.386;2023-10-13T00:07:58;9.43;;;4.50;;
2624;SDS011;1322;53.256;10.386;2023-10-13T00:10:28;10.50;;;4.27;;
2624;SDS011;1322;53.256;10.386;2023-10-13T00:13:00;9.47;;;4.23;;
2624;SDS011;1322;53.256;10.386;2023-10-13T00:15:44;9.03;;;4.90;;
2624;SDS011;1322;53.256;10.386;2023-10-13T00:18:31;9.70;;;4.57;;
2624;SDS011;1322;53.256;10.386;2023-10-13T00:21:03;8.67;;;4.40;;
2624;SDS011;1322;53.256;10.386;2023-10-13T00:23:37;9.43;;;4.23;;
2624;SDS011;1322;53.256;10.386;2023-10-13T00:26:04;9.03;;;4.83;;
2624;SDS011;1322;53.256;10.386;2023-10-13T00:28:34;8.13;;;4.60;;
2624;SDS011;1322;53.256;10.386;2023-10-13T00:31:22;6.77;;;4.30;;
2624;SDS011;1322;53.256;10.386;2023-10-13T00:33:48;9.10;;;4.37;;
2624;SDS011;1322;53.256;10.386;2023-10-13T00:36:14;14.50;;;4.50;;
2624;SDS011;1322;53.256;10.386;2023-10-13T00:38:44;11.37;;;5.10;;
2624;SDS011;1322;53.256;10.386;2023-10-13T00:41:13;13.97;;;4.87;;
2624;SDS011;1322;53.256;10.386;2023-10-13T00:43:47;11.00;;;5.60;;
2624;SDS011;1322;53.256;10.386;2023-10-13T00:46:32;8.60;;;5.63;;
2624;SDS011;1322;53.256;10.386;2023-10-13T00:48:59;12.40;;;5.80;;
2624;SDS011;1322;53.256;10.386;2023-10-13T00:51:26;9.30;;;5.20;;
2624;SDS011;1322;53.256;10.386;2023-10-13T00:54:04;9.80;;;5.70;;
2624;SDS011;1322;53.256;10.386;2023-10-13T00:56:40;9.80;;;4.87;;
2624;SDS011;1322;53.256;10.386;2023-10-13T00:59:29;14.03;;;6.63;;
2624;SDS011;1322;53.256;10.386;2023-10-13T01:01:59;19.07;;;5.97;;
2624;SDS011;1322;53.256;10.386;2023-10-13T01:04:45;12.77;;;5.30;;
2624;SDS011;1322;53.256;10.386;2023-10-13T01:07:11;12.63;;;6.50;;
2624;SDS011;1322;53.256;10.386;2023-10-13T01:09:41;13.73;;;6.07;;
2624;SDS011;1322;53.256;10.386;2023-10-13T01:12:13;11.00;;;6.43;;
2624;SDS011;1322;53.256;10.386;2023-10-13T01:14:39;8.50;;;5.60;;
2624;SDS011;1322;53.256;10.386;2023-10-13T01:17:05;12.10;;;6.10;;
2624;SDS011;1322;53.256;10.386;2023-10-13T01:19:35;11.87;;;6.70;;
2624;SDS011;1322;53.256;10.386;2023-10-13T01:22:07;13.23;;;6.13;;
2624;SDS011;1322;53.256;10.386;2023-10-13T01:24:33;12.13;;;6.70;;
2624;SDS011;1322;53.256;10.386;2023-10-13T01:27:02;9.73;;;6.03;;
2624;SDS011;1322;53.256;10.386;2023-10-13T01:29:45;11.20;;;6.47;;
2624;SDS011;1322;53.256;10.386;2023-10-13T01:32:23;16.00;;;6.33;;
2624;SDS011;1322;53.256;10.386;2023-10-13T01:34:49;13.73;;;6.20;;
2624;SDS011;1322;53.256;10.386;2023-10-13T01:37:20;13.80;;;7.30;;
2624;SDS011;1322;53.256;10.386;2023-10-13T01:39:46;13.90;;;6.47;;
2624;SDS011;1322;53.256;10.386;2023-10-13T01:42:14;12.17;;;6.37;;
2624;SDS011;1322;53.256;10.386;2023-10-13T01:44:46;14.70;;;6.70;;
2624;SDS011;1322;53.256;10.386;2023-10-13T01:47:13;13.03;;;7.83;;
2624;SDS011;1322;53.256;10.386;2023-10-13T01:49:40;11.00;;;7.43;;
2624;SDS011;1322;53.256;10.386;2023-10-13T01:52:07;9.40;;;7.50;;
2624;SDS011;1322;53.256;10.386;2023-10-13T01:54:37;14.83;;;8.00;;
2624;SDS011;1322;53.256;10.386;2023-10-13T01:57:06;14.27;;;8.20;;
2624;SDS011;1322;53.256;10.386;2023-10-13T01:59:32;19.60;;;8.40;;
2624;SDS011;1322;53.256;10.386;2023-10-13T02:01:58;11.03;;;8.23;;
2624;SDS011;1322;53.256;10.386;2023-10-13T02:04:26;13.53;;;9.07;;
2624;SDS011;1322;53.256;10.386;2023-10-13T02:06:52;13.57;;;8.03;;
2624;SDS011;1322;53.256;10.386;2023-10-13T02:09:18;17.70;;;8.73;;
2624;SDS011;1322;53.256;10.386;2023-10-13T02:11:52;11.47;;;7.80;;
2624;SDS011;1322;53.256;10.386;2023-10-13T02:14:19;13.80;;;8.13;;
2624;SDS011;1322;53.256;10.386;2023-10-13T02:16:50;16.07;;;9.30;;
2624;SDS011;1322;53.256;10.386;2023-10-13T02:19:37;17.30;;;10.13;;
2624;SDS011;1322;53.256;10.386;2023-10-13T02:22:09;15.67;;;8.90;;
2624;SDS011;1322;53.256;10.386;2023-10-13T02:24:36;14.23;;;7.97;;
2624;SDS011;1322;53.256;10.386;2023-10-13T02:27:07;18.90;;;9.70;;
2624;SDS011;1322;53.256;10.386;2023-10-13T02:29:42;14.27;;;8.30;;
2624;SDS011;1322;53.256;10.386;2023-10-13T02:32:11;10.73;;;7.50;;
2624;SDS011;1322;53.256;10.386;2023-10-13T02:34:43;11.10;;;7.97;;
2624;SDS011;1322;53.256;10.386;2023-10-13T02:37:12;18.07;;;9.10;;
2624;SDS011;1322;53.256;10.386;2023-10-13T02:39:38;11.53;;;8.60;;
2624;SDS011;1322;53.256;10.386;2023-10-13T02:42:08;14.47;;;9.40;;
2624;SDS011;1322;53.256;10.386;2023-10-13T02:44:41;12.87;;;8.60;;
2624;SDS011;1322;53.256;10.386;2023-10-13T02:47:11;16.00;;;8.77;;
2624;SDS011;1322;53.256;10.386;2023-10-13T02:49:39;17.43;;;9.43;;
2624;SDS011;1322;53.256;10.386;2023-10-13T02:52:08;14.17;;;8.97;;
2624;SDS011;1322;53.256;10.386;2023-10-13T02:54:35;16.53;;;9.47;;
2624;SDS011;1322;53.256;10.386;2023-10-13T02:57:07;14.37;;;9.27;;
2624;SDS011;1322;53.256;10.386;2023-10-13T02:59:33;16.33;;;10.43;;
2624;SDS011;1322;53.256;10.386;2023-10-13T03:02:20;15.23;;;8.77;;
2624;SDS011;1322;53.256;10.386;2023-10-13T03:04:51;20.50;;;9.80;;
2624;SDS011;1322;53.256;10.386;2023-10-13T03:07:24;11.53;;;8.03;;
2624;SDS011;1322;53.256;10.386;2023-10-13T03:09:56;18.30;;;8.83;;
2624;SDS011;1322;53.256;10.386;2023-10-13T03:12:25;10.30;;;8.53;;
2624;SDS011;1322;53.256;10.386;2023-10-13T03:14:51;14.47;;;9.00;;
2624;SDS011;1322;53.256;10.386;2023-10-13T03:17:22;13.80;;;9.30;;
2624;SDS011;1322;53.256;10.386;2023-10-13T03:19:58;11.57;;;8.27;;
2624;SDS011;1322;53.256;10.386;2023-10-13T03:22:24;14.27;;;8.80;;
2624;SDS011;1322;53.256;10.386;2023-10-13T03:24:58;16.13;;;9.50;;
2624;SDS011;1322;53.256;10.386;2023-10-13T03:27:29;15.83;;;9.70;;
2624;SDS011;1322;53.256;10.386;2023-10-13T03:30:15;15.83;;;9.17;;
2624;SDS011;1322;53.256;10.386;2023-10-13T03:32:42;18.67;;;9.77;;
2624;SDS011;1322;53.256;10.386;2023-10-13T03:35:12;15.97;;;8.47;;
2624;SDS011;1322;53.256;10.386;2023-10-13T03:37:39;18.43;;;10.23;;
2624;SDS011;1322;53.256;10.386;2023-10-13T03:40:06;17.50;;;12.17;;
2624;SDS011;1322;53.256;10.386;2023-10-13T03:42:54;19.10;;;11.20;;
2624;SDS011;1322;53.256;10.386;2023-10-13T03:45:40;19.20;;;12.10;;
2624;SDS011;1322;53.256;10.386;2023-10-13T03:48:13;23.27;;;11.83;;
2624;SDS011;1322;53.256;10.386;2023-10-13T03:50:59;20.03;;;11.90;;
2624;SDS011;1322;53.256;10.386;2023-10-13T03:53:32;18.00;;;11.13;;
2624;SDS011;1322;53.256;10.386;2023-10-13T03:56:04;20.87;;;11.40;;
2624;SDS011;1322;53.256;10.386;2023-10-13T03:58:34;18.97;;;11.60;;
2624;SDS011;1322;53.256;10.386;2023-10-13T04:01:01;28.43;;;13.13;;
2624;SDS011;1322;53.256;10.386;2023-10-13T04:03:28;28.33;;;11.90;;
2624;SDS011;1322;53.256;10.386;2023-10-13T04:06:00;22.23;;;13.77;;
2624;SDS011;1322;53.256;10.386;2023-10-13T04:08:31;29.83;;;14.50;;
2624;SDS011;1322;53.256;10.386;2023-10-13T04:11:14;29.37;;;15.33;;
2624;SDS011;1322;53.256;10.386;2023-10-13T04:13:58;26.50;;;15.00;;
2624;SDS011;1322;53.256;10.386;2023-10-13T04:16:42;28.23;;;15.50;;
2624;SDS011;1322;53.256;10.386;2023-10-13T04:19:30;33.93;;;16.70;;
2624;SDS011;1322;53.256;10.386;2023-10-13T04:22:04;26.50;;;16.40;;
2624;SDS011;1322;53.256;10.386;2023-10-13T04:24:39;27.50;;;16.50;;
2624;SDS011;1322;53.256;10.386;2023-10-13T04:27:24;33.73;;;17.90;;
2624;SDS011;1322;53.256;10.386;2023-10-13T04:30:09;34.17;;;17.53;;
2624;SDS011;1322;53.256;10.386;2023-10-13T04:32:35;28.50;;;16.60;;
2624;SDS011;1322;53.256;10.386;2023-10-13T04:35:11;30.40;;;17.63;;
2624;SDS011;1322;53.256;10.386;2023-10-13T04:37:39;34.70;;;18.80;;
2624;SDS011;1322;53.256;10.386;2023-10-13T04:40:23;35.13;;;20.60;;
2624;SDS011;1322;53.256;10.386;2023-10-13T04:42:53;45.37;;;20.70;;
2624;SDS011;1322;53.256;10.386;2023-10-13T04:45:22;40.60;;;20.93;;
2624;SDS011;1322;53.256;10.386;2023-10-13T04:47:57;42.93;;;25.10;;
2624;SDS011;1322;53.256;10.386;2023-10-13T04:50:47;32.63;;;21.90;;
2624;SDS011;1322;53.256;10.386;2023-10-13T04:53:18;39.10;;;24.13;;
2624;SDS011;1322;53.256;10.386;2023-10-13T04:55:58;39.23;;;23.40;;
2624;SDS011;1322;53.256;10.386;2023-10-13T04:58:24;40.10;;;22.93;;
2624;SDS011;1322;53.256;10.386;2023-10-13T05:01:12;41.67;;;22.73;;
2624;SDS011;1322;53.256;10.386;2023-10-13T05:03:50;40.97;;;22.77;;
2624;SDS011;1322;53.256;10.386;2023-10-13T05:06:34;38.67;;;20.87;;
2624;SDS011;1322;53.256;10.386;2023-10-13T05:09:09;40.97;;;22.63;;
2624;SDS011;1322;53.256;10.386;2023-10-13T05:11:53;43.13;;;25.20;;
2624;SDS011;1322;53.256;10.386;2023-10-13T05:14:38;41.67;;;22.73;;
2624;SDS011;1322;53.256;10.386;2023-10-13T05:17:22;44.27;;;23.67;;
2624;SDS011;1322;53.256;10.386;2023-10-13T05:20:07;42.47;;;25.90;;
2624;SDS011;1322;53.256;10.386;2023-10-13T05:22:52;41.20;;;24.90;;
2624;SDS011;1322;53.256;10.386;2023-10-13T05:25:36;40.10;;;24.50;;
2624;SDS011;1322;53.256;10.386;2023-10-13T05:28:21;45.63;;;25.20;;
2624;SDS011;1322;53.256;10.386;2023-10-13T05:31:06;45.40;;;27.23;;
2624;SDS011;1322;53.256;10.386;2023-10-13T05:33:51;42.37;;;26.17;;
2624;SDS011;1322;53.256;10.386;2023-10-13T05:36:39;44.60;;;27.73;;
2624;SDS011;1322;53.256;10.386;2023-10-13T05:39:24;57.13;;;26.80;;
2624;SDS011;1322;53.256;10.386;2023-10-13T05:42:08;50.70;;;27.57;;
2624;SDS011;1322;53.256;10.386;2023-10-13T05:44:52;46.13;;;26.43;;
2624;SDS011;1322;53.256;10.386;2023-10-13T05:47:36;45.07;;;28.00;;
2624;SDS011;1322;53.256;10.386;2023-10-13T05:50:08;53.50;;;27.80;;
2624;SDS011;1322;53.256;10.386;2023-10-13T05:52:48;48.70;;;27.70;;
2624;SDS011;1322;53.256;10.386;2023-10-13T05:55:21;44.57;;;27.43;;
2624;SDS011;1322;53.256;10.386;2023-10-13T05:58:12;45.00;;;27.30;;
2624;SDS011;1322;53.256;10.386;2023-10-13T06:00:57;46.97;;;28.50;;
2624;SDS011;1322;53.256;10.386;2023-10-13T06:03:42;53.30;;;28.00;;
2624;SDS011;1322;53.256;10.386;2023-10-13T06:06:26;57.73;;;30.17;;
2624;SDS011;1322;53.256;10.386;2023-10-13T06:09:10;50.77;;;28.87;;
2624;SDS011;1322;53.256;10.386;2023-10-13T06:11:54;45.27;;;26.73;;
2624;SDS011;1322;53.256;10.386;2023-10-13T06:14:38;39.70;;;26.43;;
2624;SDS011;1322;53.256;10.386;2023-10-13T06:17:22;47.47;;;27.70;;
2624;SDS011;1322;53.256;10.386;2023-10-13T06:20:07;48.37;;;27.33;;
2624;SDS011;1322;53.256;10.386;2023-10-13T06:22:51;51.73;;;27.30;;
2624;SDS011;1322;53.256;10.386;2023-10-13T06:25:36;48.50;;;26.67;;
2624;SDS011;1322;53.256;10.386;2023-10-13T06:28:21;51.47;;;27.37;;
2624;SDS011;1322;53.256;10.386;2023-10-13T06:31:05;36.27;;;25.67;;
2624;SDS011;1322;53.256;10.386;2023-10-13T06:33:31;37.37;;;26.90;;
2624;SDS011;1322;53.256;10.386;2023-10-13T06:35:59;43.53;;;29.27;;
2624;SDS011;1322;53.256;10.386;2023-10-13T06:38:29;35.00;;;25.60;;
2624;SDS011;1322;53.256;10.386;2023-10-13T06:41:04;43.33;;;25.70;;
2624;SDS011;1322;53.256;10.386;2023-10-13T06:43:34;44.17;;;25.10;;
2624;SDS011;1322;53.256;10.386;2023-10-13T06:46:08;38.53;;;25.33;;
2624;SDS011;1322;53.256;10.386;2023-10-13T06:48:40;40.60;;;24.50;;
2624;SDS011;1322;53.256;10.386;2023-10-13T06:51:06;41.60;;;25.87;;
2624;SDS011;1322;53.256;10.386;2023-10-13T06:53:45;30.87;;;23.83;;
2624;SDS011;1322;53.256;10.386;2023-10-13T06:56:14;31.50;;;23.27;;
2624;SDS011;1322;53.256;10.386;2023-10-13T06:59:07;27.40;;;22.27;;
2624;SDS011;1322;53.256;10.386;2023-10-13T07:01:32;38.37;;;24.10;;
2624;SDS011;1322;53.256;10.386;2023-10-13T07:04:03;36.47;;;23.00;;
2624;SDS011;1322;53.256;10.386;2023-10-13T07:06:37;33.57;;;21.60;;
2624;SDS011;1322;53.256;10.386;2023-10-13T07:09:07;31.00;;;20.40;;
2624;SDS011;1322;53.256;10.386;2023-10-13T07:11:40;31.80;;;20.30;;
2624;SDS011;1322;53.256;10.386;2023-10-13T07:14:08;28.50;;;20.27;;
2624;SDS011;1322;53.256;10.386;2023-10-13T07:16:55;30.10;;;21.70;;
2624;SDS011;1322;53.256;10.386;2023-10-13T07:19:27;39.30;;;21.50;;
2624;SDS011;1322;53.256;10.386;2023-10-13T07:22:00;32.13;;;20.10;;
2624;SDS011;1322;53.256;10.386;2023-10-13T07:24:46;27.37;;;19.17;;
2624;SDS011;1322;53.256;10.386;2023-10-13T07:27:16;24.87;;;18.70;;
2624;SDS011;1322;53.256;10.386;2023-10-13T07:29:48;26.10;;;17.83;;
2624;SDS011;1322;53.256;10.386;2023-10-13T07:32:42;28.57;;;18.67;;
2624;SDS011;1322;53.256;10.386;2023-10-13T07:35:11;24.40;;;18.00;;
2624;SDS011;1322;53.256;10.386;2023-10-13T07:37:40;26.33;;;17.60;;
2624;SDS011;1322;53.256;10.386;2023-10-13T07:40:07;26.53;;;17.17;;
2624;SDS011;1322;53.256;10.386;2023-10-13T07:42:47;20.50;;;16.53;;
2624;SDS011;1322;53.256;10.386;2023-10-13T07:45:12;26.50;;;17.37;;
2624;SDS011;1322;53.256;10.386;2023-10-13T07:47:38;21.17;;;16.50;;
2624;SDS011;1322;53.256;10.386;2023-10-13T07:50:04;36.53;;;28.47;;
2624;SDS011;1322;53.256;10.386;2023-10-13T07:52:31;18.80;;;14.40;;
2624;SDS011;1322;53.256;10.386;2023-10-13T07:55:07;25.27;;;15.80;;
2624;SDS011;1322;53.256;10.386;2023-10-13T07:57:46;25.80;;;16.00;;
2624;SDS011;1322;53.256;10.386;2023-10-13T08:00:24;19.90;;;14.10;;
2624;SDS011;1322;53.256;10.386;2023-10-13T08:03:03;15.97;;;13.83;;
2624;SDS011;1322;53.256;10.386;2023-10-13T08:05:41;20.83;;;13.90;;
2624;SDS011;1322;53.256;10.386;2023-10-13T08:08:43;15.60;;;13.93;;
2624;SDS011;1322;53.256;10.386;2023-10-13T08:11:14;20.80;;;13.80;;
2624;SDS011;1322;53.256;10.386;2023-10-13T08:13:53;16.10;;;13.20;;
2624;SDS011;1322;53.256;10.386;2023-10-13T08:16:36;20.07;;;14.90;;
2624;SDS011;1322;53.256;10.386;2023-10-13T08:19:27;16.73;;;13.90;;
2624;SDS011;1322;53.256;10.386;2023-10-13T08:21:57;18.70;;;12.40;;
2624;SDS011;1322;53.256;10.386;2023-10-13T08:24:25;15.73;;;11.63;;
2624;SDS011;1322;53.256;10.386;2023-10-13T08:27:03;14.13;;;10.60;;
2624;SDS011;1322;53.256;10.386;2023-10-13T08:29:42;14.57;;;10.77;;
2624;SDS011;1322;53.256;10.386;2023-10-13T08:32:20;16.30;;;11.00;;
2624;SDS011;1322;53.256;10.386;2023-10-13T08:34:51;9.73;;;8.60;;
2624;SDS011;1322;53.256;10.386;2023-10-13T08:37:17;12.00;;;9.13;;
2624;SDS011;1322;53.256;10.386;2023-10-13T08:39:46;8.73;;;7.57;;
2624;SDS011;1322;53.256;10.386;2023-10-13T08:42:43;12.07;;;8.60;;
2624;SDS011;1322;53.256;10.386;2023-10-13T08:45:10;9.30;;;8.27;;
2624;SDS011;1322;53.256;10.386;2023-10-13T08:47:51;8.60;;;6.70;;
2624;SDS011;1322;53.256;10.386;2023-10-13T08:50:22;8.17;;;6.70;;
2624;SDS011;1322;53.256;10.386;2023-10-13T08:53:13;10.17;;;6.03;;
2624;SDS011;1322;53.256;10.386;2023-10-13T08:58:30;11.67;;;7.13;;
2624;SDS011;1322;53.256;10.386;2023-10-13T09:01:15;6.47;;;5.40;;
2624;SDS011;1322;53.256;10.386;2023-10-13T09:04:00;10.20;;;5.90;;
2624;SDS011;1322;53.256;10.386;2023-10-13T09:06:54;7.37;;;5.50;;
2624;SDS011;1322;53.256;10.386;2023-10-13T09:12:15;6.70;;;5.43;;
2624;SDS011;1322;53.256;10.386;2023-10-13T09:14:43;10.40;;;5.83;;
2624;SDS011;1322;53.256;10.386;2023-10-13T09:17:22;6.97;;;5.50;;
2624;SDS011;1322;53.256;10.386;2023-10-13T09:19:58;7.93;;;5.10;;
2624;SDS011;1322;53.256;10.386;2023-10-13T09:22:44;7.87;;;5.70;;
2624;SDS011;1322;53.256;10.386;2023-10-13T09:25:21;6.00;;;5.20;;
2624;SDS011;1322;53.256;10.386;2023-10-13T09:27:48;6.30;;;5.17;;
2624;SDS011;1322;53.256;10.386;2023-10-13T09:30:18;10.60;;;5.70;;
2624;SDS011;1322;53.256;10.386;2023-10-13T09:32:46;10.63;;;5.27;;
2624;SDS011;1322;53.256;10.386;2023-10-13T09:35:18;9.13;;;5.03;;
2624;SDS011;1322;53.256;10.386;2023-10-13T09:37:48;6.93;;;4.37;;
2624;SDS011;1322;53.256;10.386;2023-10-13T09:40:15;6.87;;;5.03;;
2624;SDS011;1322;53.256;10.386;2023-10-13T09:43:03;8.60;;;5.43;;
2624;SDS011;1322;53.256;10.386;2023-10-13T09:45:40;6.20;;;4.87;;
2624;SDS011;1322;53.256;10.386;2023-10-13T09:48:22;8.90;;;5.40;;
2624;SDS011;1322;53.256;10.386;2023-10-13T09:50:55;8.53;;;6.10;;
2624;SDS011;1322;53.256;10.386;2023-10-13T09:53:33;7.97;;;5.70;;
2624;SDS011;1322;53.256;10.386;2023-10-13T09:58:51;8.13;;;5.40;;
2624;SDS011;1322;53.256;10.386;2023-10-13T10:01:24;9.90;;;6.20;;
2624;SDS011;1322;53.256;10.386;2023-10-13T10:04:08;7.47;;;5.60;;
2624;SDS011;1322;53.256;10.386;2023-10-13T10:06:39;9.33;;;5.60;;
2624;SDS011;1322;53.256;10.386;2023-10-13T10:09:10;8.60;;;5.90;;
2624;SDS011;1322;53.256;10.386;2023-10-13T10:11:48;7.53;;;4.47;;
2624;SDS011;1322;53.256;10.386;2023-10-13T10:17:41;6.00;;;5.37;;
2624;SDS011;1322;53.256;10.386;2023-10-13T10:20:08;15.83;;;6.80;;
2624;SDS011;1322;53.256;10.386;2023-10-13T10:22:54;8.17;;;5.97;;
2624;SDS011;1322;53.256;10.386;2023-10-13T10:25:28;8.07;;;6.47;;
2624;SDS011;1322;53.256;10.386;2023-10-13T10:28:00;13.23;;;6.10;;
2624;SDS011;1322;53.256;10.386;2023-10-13T10:30:30;10.30;;;6.43;;
2624;SDS011;1322;53.256;10.386;2023-10-13T10:33:00;9.17;;;5.93;;
2624;SDS011;1322;53.256;10.386;2023-10-13T10:35:32;9.07;;;6.33;;
2624;SDS011;1322;53.256;10.386;2023-10-13T10:38:15;8.37;;;6.43;;
2624;SDS011;1322;53.256;10.386;2023-10-13T10:40:50;8.43;;;6.60;;
2624;SDS011;1322;53.256;10.386;2023-10-13T10:43:28;12.67;;;5.47;;
2624;SDS011;1322;53.256;10.386;2023-10-13T10:46:06;8.17;;;5.83;;
2624;SDS011;1322;53.256;10.386;2023-10-13T10:48:39;14.10;;;6.30;;
2624;SDS011;1322;53.256;10.386;2023-10-13T10:51:09;9.70;;;5.80;;
2624;SDS011;1322;53.256;10.386;2023-10-13T10:53:52;6.63;;;5.77;;
2624;SDS011;1322;53.256;10.386;2023-10-13T10:56:21;9.97;;;6.23;;
2624;SDS011;1322;53.256;10.386;2023-10-13T10:58:50;9.90;;;5.60;;
2624;SDS011;1322;53.256;10.386;2023-10-13T11:06:34;9.63;;;5.60;;
2624;SDS011;1322;53.256;10.386;2023-10-13T11:09:07;10.17;;;6.17;;
2624;SDS011;1322;53.256;10.386;2023-10-13T11:11:51;10.27;;;5.93;;
2624;SDS011;1322;53.256;10.386;2023-10-13T11:16:52;11.33;;;5.43;;
2624;SDS011;1322;53.256;10.386;2023-10-13T11:19:20;9.30;;;5.60;;
2624;SDS011;1322;53.256;10.386;2023-10-13T11:21:51;7.83;;;5.30;;
2624;SDS011;1322;53.256;10.386;2023-10-13T11:24:18;8.70;;;6.20;;
2624;SDS011;1322;53.256;10.386;2023-10-13T11:26:46;8.33;;;5.40;;
2624;SDS011;1322;53.256;10.386;2023-10-13T11:29:19;5.77;;;4.83;;
2624;SDS011;1322;53.256;10.386;2023-10-13T11:31:58;9.57;;;5.23;;
2624;SDS011;1322;53.256;10.386;2023-10-13T11:34:25;7.23;;;4.53;;
2624;SDS011;1322;53.256;10.386;2023-10-13T11:37:01;7.10;;;4.60;;
2624;SDS011;1322;53.256;10.386;2023-10-13T11:39:46;9.03;;;5.00;;
2624;SDS011;1322;53.256;10.386;2023-10-13T11:42:12;8.57;;;4.97;;
2624;SDS011;1322;53.256;10.386;2023-10-13T11:44:42;9.80;;;4.70;;
2624;SDS011;1322;53.256;10.386;2023-10-13T11:47:11;9.10;;;4.80;;
2624;SDS011;1322;53.256;10.386;2023-10-13T11:50:02;7.77;;;4.50;;
2624;SDS011;1322;53.256;10.386;2023-10-13T11:52:30;8.43;;;4.83;;
2624;SDS011;1322;53.256;10.386;2023-10-13T11:54:56;11.70;;;6.23;;
2624;SDS011;1322;53.256;10.386;2023-10-13T11:57:21;7.03;;;4.80;;
2624;SDS011;1322;53.256;10.386;2023-10-13T11:59:47;10.90;;;5.63;;
2624;SDS011;1322;53.256;10.386;2023-10-13T12:02:21;19.70;;;12.13;;
2624;SDS011;1322;53.256;10.386;2023-10-13T12:04:52;15.27;;;9.93;;
2624;SDS011;1322;53.256;10.386;2023-10-13T12:07:20;10.83;;;6.40;;
2624;SDS011;1322;53.256;10.386;2023-10-13T12:09:47;14.23;;;6.07;;
2624;SDS011;1322;53.256;10.386;2023-10-13T12:12:25;9.50;;;5.77;;
2624;SDS011;1322;53.256;10.386;2023-10-13T12:14:55;8.30;;;6.20;;
2624;SDS011;1322;53.256;10.386;2023-10-13T12:17:25;6.30;;;5.07;;
2624;SDS011;1322;53.256;10.386;2023-10-13T12:20:02;11.23;;;5.90;;
2624;SDS011;1322;53.256;10.386;2023-10-13T12:22:35;10.10;;;5.57;;
2624;SDS011;1322;53.256;10.386;2023-10-13T12:25:04;7.90;;;5.07;;
2624;SDS011;1322;53.256;10.386;2023-10-13T12:27:47;8.57;;;4.80;;
2624;SDS011;1322;53.256;10.386;2023-10-13T12:30:15;10.77;;;5.30;;
2624;SDS011;1322;53.256;10.386;2023-10-13T12:32:48;7.33;;;4.90;;
2624;SDS011;1322;53.256;10.386;2023-10-13T12:35:24;16.20;;;13.10;;
2624;SDS011;1322;53.256;10.386;2023-10-13T12:38:00;10.73;;;7.93;;
2624;SDS011;1322;53.256;10.386;2023-10-13T12:40:31;12.93;;;5.97;;
2624;SDS011;1322;53.256;10.386;2023-10-13T12:43:15;9.50;;;5.10;;
2624;SDS011;1322;53.256;10.386;2023-10-13T12:45:59;12.67;;;6.17;;
2624;SDS011;1322;53.256;10.386;2023-10-13T12:48:43;8.03;;;4.83;;
2624;SDS011;1322;53.256;10.386;2023-10-13T12:51:24;9.90;;;4.93;;
2624;SDS011;1322;53.256;10.386;2023-10-13T12:53:58;13.90;;;5.20;;
2624;SDS011;1322;53.256;10.386;2023-10-13T12:56:39;12.30;;;6.00;;
2624;SDS011;1322;53.256;10.386;2023-10-13T12:59:11;10.13;;;6.10;;
2624;SDS011;1322;53.256;10.386;2023-10-13T13:01:40;9.70;;;5.47;;
2624;SDS011;1322;53.256;10.386;2023-10-13T13:04:09;8.20;;;5.40;;
2624;SDS011;1322;53.256;10.386;2023-10-13T13:06:45;6.60;;;4.50;;
2624;SDS011;1322;53.256;10.386;2023-10-13T13:09:11;9.73;;;5.60;;
2624;SDS011;1322;53.256;10.386;2023-10-13T13:11:37;9.40;;;5.10;;
2624;SDS011;1322;53.256;10.386;2023-10-13T13:14:08;13.57;;;6.07;;
2624;SDS011;1322;53.256;10.386;2023-10-13T13:16:35;9.37;;;5.30;;
2624;SDS011;1322;53.256;10.386;2023-10-13T13:19:03;12.17;;;5.30;;
2624;SDS011;1322;53.256;10.386;2023-10-13T13:21:38;8.10;;;5.70;;
2624;SDS011;1322;53.256;10.386;2023-10-13T13:24:04;7.00;;;4.87;;
2624;SDS011;1322;53.256;10.386;2023-10-13T13:26:35;8.50;;;6.07;;
2624;SDS011;1322;53.256;10.386;2023-10-13T13:29:05;9.40;;;6.30;;
2624;SDS011;1322;53.256;10.386;2023-10-13T13:31:34;9.83;;;5.37;;
2624;SDS011;1322;53.256;10.386;2023-10-13T13:34:06;11.30;;;5.20;;
2624;SDS011;1322;53.256;10.386;2023-10-13T13:36:34;10.60;;;6.23;;
2624;SDS011;1322;53.256;10.386;2023-10-13T13:39:00;10.37;;;5.43;;
2624;SDS011;1322;53.256;10.386;2023-10-13T13:41:26;16.10;;;6.13;;
2624;SDS011;1322;53.256;10.386;2023-10-13T13:43:52;11.50;;;6.10;;
2624;SDS011;1322;53.256;10.386;2023-10-13T13:46:25;8.53;;;5.70;;
2624;SDS011;1322;53.256;10.386;2023-10-13T13:48:57;15.57;;;5.40;;
2624;SDS011;1322;53.256;10.386;2023-10-13T13:51:27;13.10;;;6.03;;
2624;SDS011;1322;53.256;10.386;2023-10-13T13:53:56;9.50;;;4.90;;
2624;SDS011;1322;53.256;10.386;2023-10-13T13:56:23;11.67;;;6.43;;
2624;SDS011;1322;53.256;10.386;2023-10-13T13:58:53;10.73;;;5.60;;
2624;SDS011;1322;53.256;10.386;2023-10-13T14:01:20;9.57;;;6.37;;
2624;SDS011;1322;53.256;10.386;2023-10-13T14:03:50;10.27;;;5.83;;
2624;SDS011;1322;53.256;10.386;2023-10-13T14:06:17;10.20;;;5.90;;
2624;SDS011;1322;53.256;10.386;2023-10-13T14:08:46;13.17;;;9.10;;
2624;SDS011;1322;53.256;10.386;2023-10-13T14:11:16;16.50;;;11.50;;
2624;SDS011;1322;53.256;10.386;2023-10-13T14:14:01;10.03;;;5.50;;
2624;SDS011;1322;53.256;10.386;2023-10-13T14:16:29;9.03;;;6.43;;
2624;SDS011;1322;53.256;10.386;2023-10-13T14:18:58;13.13;;;5.67;;
2624;SDS011;1322;53.256;10.386;2023-10-13T14:21:26;10.50;;;6.30;;
2624;SDS011;1322;53.256;10.386;2023-10-13T14:23:52;10.87;;;6.60;;
2624;SDS011;1322;53.256;10.386;2023-10-13T14:26:19;8.63;;;6.00;;
2624;SDS011;1322;53.256;10.386;2023-10-13T14:28:46;10.37;;;6.03;;
2624;SDS011;1322;53.256;10.386;2023-10-13T14:31:25;13.23;;;6.57;;
2624;SDS011;1322;53.256;10.386;2023-10-13T14:33:51;20.37;;;7.23;;
2624;SDS011;1322;53.256;10.386;2023-10-13T14:36:18;9.27;;;6.40;;
2624;SDS011;1322;53.256;10.386;2023-10-13T14:38:45;12.60;;;6.73;;
2624;SDS011;1322;53.256;10.386;2023-10-13T14:41:14;15.00;;;5.50;;
2624;SDS011;1322;53.256;10.386;2023-10-13T14:43:42;11.77;;;6.00;;
2624;SDS011;1322;53.256;10.386;2023-10-13T14:46:13;12.03;;;6.63;;
2624;SDS011;1322;53.256;10.386;2023-10-13T14:48:39;14.77;;;6.13;;
2624;SDS011;1322;53.256;10.386;2023-10-13T14:51:08;10.07;;;6.50;;
2624;SDS011;1322;53.256;10.386;2023-10-13T14:53:38;14.20;;;6.07;;
2624;SDS011;1322;53.256;10.386;2023-10-13T14:56:08;16.50;;;6.23;;
2624;SDS011;1322;53.256;10.386;2023-10-13T14:58:43;13.83;;;6.57;;
2624;SDS011;1322;53.256;10.386;2023-10-13T15:01:12;12.13;;;6.73;;
2624;SDS011;1322;53.256;10.386;2023-10-13T15:06:14;12.07;;;5.73;;
2624;SDS011;1322;53.256;10.386;2023-10-13T15:08:42;16.80;;;7.30;;
2624;SDS011;1322;53.256;10.386;2023-10-13T15:11:11;11.33;;;6.70;;
2624;SDS011;1322;53.256;10.386;2023-10-13T15:13:38;15.87;;;7.40;;
2624;SDS011;1322;53.256;10.386;2023-10-13T15:16:13;13.57;;;7.40;;
2624;SDS011;1322;53.256;10.386;2023-10-13T15:18:41;13.27;;;6.40;;
2624;SDS011;1322;53.256;10.386;2023-10-13T15:21:18;19.27;;;9.63;;
2624;SDS011;1322;53.256;10.386;2023-10-13T15:23:44;15.97;;;7.00;;
2624;SDS011;1322;53.256;10.386;2023-10-13T15:26:10;11.30;;;6.40;;
2624;SDS011;1322;53.256;10.386;2023-10-13T15:28:38;16.17;;;8.83;;
2624;SDS011;1322;53.256;10.386;2023-10-13T15:31:13;16.17;;;7.40;;
2624;SDS011;1322;53.256;10.386;2023-10-13T15:33:58;16.33;;;7.97;;
2624;SDS011;1322;53.256;10.386;2023-10-13T15:36:24;12.93;;;7.63;;
2624;SDS011;1322;53.256;10.386;2023-10-13T15:38:51;12.57;;;7.03;;
2624;SDS011;1322;53.256;10.386;2023-10-13T15:41:28;21.10;;;7.37;;
2624;SDS011;1322;53.256;10.386;2023-10-13T15:43:54;15.23;;;8.57;;
2624;SDS011;1322;53.256;10.386;2023-10-13T15:46:21;15.43;;;7.57;;
2624;SDS011;1322;53.256;10.386;2023-10-13T15:48:51;41.80;;;31.73;;